Terminal Aerodrome Forecast
Issued by NWS Portland, OR

Home | Current Version | Previous Version | Text Only | Print | Product List | Glossary On
Versions: 1 2 3 4 5 6 7 8 9 10 11 12 13 14 15 16 17 18 19 20 21 22 23 24 25 26 27 28
000
FTUS46 KPQR 172341
TAFSLE
TAF
KSLE 172341Z 1800/1824 15005KT 2SM -RA OVC050
     FM180500 18010KT 3SM -RA SCT025 OVC050
     FM181200 18015KT 5SM -RA SCT015 BKN025 OVC050
     FM181900 18011KT 6SM -SHRA BKN025 OVC050=

USA.gov is the U.S. government's official web portal to all federal, state and local government web resources and services.